sensor_id;sensor_type;location;lat;lon;timestamp;P1;durP1;ratioP1;P2;durP2;ratioP2
21758;SDS011;11041;50.854;20.580;2024-01-15T00:02:03;30.90;;;16.88;;
21758;SDS011;11041;50.854;20.580;2024-01-15T00:04:40;22.95;;;13.20;;
21758;SDS011;11041;50.854;20.580;2024-01-15T00:07:09;28.65;;;16.35;;
21758;SDS011;11041;50.854;20.580;2024-01-15T00:09:38;25.65;;;13.50;;
21758;SDS011;11041;50.854;20.580;2024-01-15T00:12:08;29.73;;;15.52;;
21758;SDS011;11041;50.854;20.580;2024-01-15T00:14:37;28.67;;;15.18;;
21758;SDS011;11041;50.854;20.580;2024-01-15T00:17:07;27.77;;;15.52;;
21758;SDS011;11041;50.854;20.580;2024-01-15T00:19:36;29.55;;;17.05;;
21758;SDS011;11041;50.854;20.580;2024-01-15T00:22:06;29.48;;;16.35;;
21758;SDS011;11041;50.854;20.580;2024-01-15T00:24:33;31.60;;;19.85;;
21758;SDS011;11041;50.854;20.580;2024-01-15T00:27:06;23.67;;;13.05;;
21758;SDS011;11041;50.854;20.580;2024-01-15T00:29:38;26.02;;;14.88;;
21758;SDS011;11041;50.854;20.580;2024-01-15T00:32:08;20.80;;;13.35;;
21758;SDS011;11041;50.854;20.580;2024-01-15T00:34:35;20.80;;;12.10;;
21758;SDS011;11041;50.854;20.580;2024-01-15T00:37:02;26.80;;;14.63;;
21758;SDS011;11041;50.854;20.580;2024-01-15T00:39:34;25.80;;;12.73;;
21758;SDS011;11041;50.854;20.580;2024-01-15T00:42:03;23.63;;;12.40;;
21758;SDS011;11041;50.854;20.580;2024-01-15T00:44:35;27.85;;;13.80;;
21758;SDS011;11041;50.854;20.580;2024-01-15T00:47:06;27.25;;;15.40;;
21758;SDS011;11041;50.854;20.580;2024-01-15T00:49:36;23.05;;;12.35;;
21758;SDS011;11041;50.854;20.580;2024-01-15T00:52:10;24.27;;;13.80;;
21758;SDS011;11041;50.854;20.580;2024-01-15T00:54:38;23.60;;;13.13;;
21758;SDS011;11041;50.854;20.580;2024-01-15T00:57:07;34.58;;;20.52;;
21758;SDS011;11041;50.854;20.580;2024-01-15T00:59:38;23.05;;;10.95;;
21758;SDS011;11041;50.854;20.580;2024-01-15T01:02:09;25.42;;;12.90;;
21758;SDS011;11041;50.854;20.580;2024-01-15T01:04:38;26.60;;;14.60;;
21758;SDS011;11041;50.854;20.580;2024-01-15T01:07:07;26.27;;;14.18;;
21758;SDS011;11041;50.854;20.580;2024-01-15T01:09:36;27.42;;;13.43;;
21758;SDS011;11041;50.854;20.580;2024-01-15T01:12:04;23.45;;;12.15;;
21758;SDS011;11041;50.854;20.580;2024-01-15T01:14:31;24.95;;;13.45;;
21758;SDS011;11041;50.854;20.580;2024-01-15T01:17:01;30.75;;;14.65;;
21758;SDS011;11041;50.854;20.580;2024-01-15T01:19:30;16.25;;;9.55;;
21758;SDS011;11041;50.854;20.580;2024-01-15T01:22:01;24.03;;;12.07;;
21758;SDS011;11041;50.854;20.580;2024-01-15T01:24:31;20.70;;;11.13;;
21758;SDS011;11041;50.854;20.580;2024-01-15T01:27:00;17.63;;;10.50;;
21758;SDS011;11041;50.854;20.580;2024-01-15T01:29:26;24.15;;;13.55;;
21758;SDS011;11041;50.854;20.580;2024-01-15T01:31:56;23.27;;;12.27;;
21758;SDS011;11041;50.854;20.580;2024-01-15T01:34:23;23.10;;;13.68;;
21758;SDS011;11041;50.854;20.580;2024-01-15T01:36:55;26.83;;;14.50;;
21758;SDS011;11041;50.854;20.580;2024-01-15T01:39:21;25.17;;;12.85;;
21758;SDS011;11041;50.854;20.580;2024-01-15T01:41:48;25.25;;;12.90;;
21758;SDS011;11041;50.854;20.580;2024-01-15T01:44:16;22.23;;;13.15;;
21758;SDS011;11041;50.854;20.580;2024-01-15T01:46:43;20.70;;;11.65;;
21758;SDS011;11041;50.854;20.580;2024-01-15T01:49:10;25.93;;;12.40;;
21758;SDS011;11041;50.854;20.580;2024-01-15T01:51:37;13.95;;;8.32;;
21758;SDS011;11041;50.854;20.580;2024-01-15T01:54:04;23.37;;;12.37;;
21758;SDS011;11041;50.854;20.580;2024-01-15T01:56:35;19.67;;;9.30;;
21758;SDS011;11041;50.854;20.580;2024-01-15T01:59:01;19.70;;;10.68;;
21758;SDS011;11041;50.854;20.580;2024-01-15T02:01:32;20.70;;;11.05;;
21758;SDS011;11041;50.854;20.580;2024-01-15T02:03:59;22.38;;;10.38;;
21758;SDS011;11041;50.854;20.580;2024-01-15T02:06:26;19.10;;;9.80;;
21758;SDS011;11041;50.854;20.580;2024-01-15T02:08:53;23.27;;;12.65;;
21758;SDS011;11041;50.854;20.580;2024-01-15T02:11:20;19.98;;;11.13;;
21758;SDS011;11041;50.854;20.580;2024-01-15T02:13:46;21.30;;;11.73;;
21758;SDS011;11041;50.854;20.580;2024-01-15T02:16:14;17.95;;;9.02;;
21758;SDS011;11041;50.854;20.580;2024-01-15T02:18:41;18.90;;;9.97;;
21758;SDS011;11041;50.854;20.580;2024-01-15T02:21:09;19.73;;;11.02;;
21758;SDS011;11041;50.854;20.580;2024-01-15T02:23:36;20.23;;;11.18;;
21758;SDS011;11041;50.854;20.580;2024-01-15T02:26:05;27.67;;;19.40;;
21758;SDS011;11041;50.854;20.580;2024-01-15T02:28:34;20.63;;;10.68;;
21758;SDS011;11041;50.854;20.580;2024-01-15T02:31:02;20.35;;;10.63;;
21758;SDS011;11041;50.854;20.580;2024-01-15T02:33:29;21.45;;;10.68;;
21758;SDS011;11041;50.854;20.580;2024-01-15T02:35:57;17.77;;;9.50;;
21758;SDS011;11041;50.854;20.580;2024-01-15T02:38:23;14.35;;;8.82;;
21758;SDS011;11041;50.854;20.580;2024-01-15T02:40:50;17.30;;;10.73;;
21758;SDS011;11041;50.854;20.580;2024-01-15T02:43:16;20.20;;;10.73;;
21758;SDS011;11041;50.854;20.580;2024-01-15T02:45:45;18.60;;;10.15;;
21758;SDS011;11041;50.854;20.580;2024-01-15T02:48:14;17.80;;;9.93;;
21758;SDS011;11041;50.854;20.580;2024-01-15T02:50:42;14.55;;;7.53;;
21758;SDS011;11041;50.854;20.580;2024-01-15T02:53:09;19.30;;;10.45;;
21758;SDS011;11041;50.854;20.580;2024-01-15T02:55:37;15.40;;;9.45;;
21758;SDS011;11041;50.854;20.580;2024-01-15T02:58:03;15.68;;;8.23;;
21758;SDS011;11041;50.854;20.580;2024-01-15T03:00:30;21.02;;;9.63;;
21758;SDS011;11041;50.854;20.580;2024-01-15T03:02:56;18.40;;;8.75;;
21758;SDS011;11041;50.854;20.580;2024-01-15T03:05:25;15.05;;;8.23;;
21758;SDS011;11041;50.854;20.580;2024-01-15T03:07:52;19.47;;;10.13;;
21758;SDS011;11041;50.854;20.580;2024-01-15T03:10:18;11.73;;;8.02;;
21758;SDS011;11041;50.854;20.580;2024-01-15T03:12:47;17.35;;;8.32;;
21758;SDS011;11041;50.854;20.580;2024-01-15T03:15:14;16.30;;;8.53;;
21758;SDS011;11041;50.854;20.580;2024-01-15T03:17:43;18.30;;;10.52;;
21758;SDS011;11041;50.854;20.580;2024-01-15T03:20:10;16.92;;;8.32;;
21758;SDS011;11041;50.854;20.580;2024-01-15T03:22:37;20.40;;;10.13;;
21758;SDS011;11041;50.854;20.580;2024-01-15T03:25:04;18.52;;;10.15;;
21758;SDS011;11041;50.854;20.580;2024-01-15T03:27:33;14.95;;;8.40;;
21758;SDS011;11041;50.854;20.580;2024-01-15T03:30:02;14.97;;;8.20;;
21758;SDS011;11041;50.854;20.580;2024-01-15T03:32:29;17.08;;;8.50;;
21758;SDS011;11041;50.854;20.580;2024-01-15T03:34:57;15.60;;;9.23;;
21758;SDS011;11041;50.854;20.580;2024-01-15T03:37:24;18.40;;;9.80;;
21758;SDS011;11041;50.854;20.580;2024-01-15T03:39:55;18.20;;;9.53;;
21758;SDS011;11041;50.854;20.580;2024-01-15T03:42:24;14.90;;;9.00;;
21758;SDS011;11041;50.854;20.580;2024-01-15T03:44:55;19.45;;;9.88;;
21758;SDS011;11041;50.854;20.580;2024-01-15T03:47:27;19.23;;;10.15;;
21758;SDS011;11041;50.854;20.580;2024-01-15T03:49:57;15.60;;;9.48;;
21758;SDS011;11041;50.854;20.580;2024-01-15T03:52:23;18.33;;;10.15;;
21758;SDS011;11041;50.854;20.580;2024-01-15T03:54:51;13.57;;;8.30;;
21758;SDS011;11041;50.854;20.580;2024-01-15T03:57:18;16.27;;;9.23;;
21758;SDS011;11041;50.854;20.580;2024-01-15T03:59:46;16.65;;;8.88;;
21758;SDS011;11041;50.854;20.580;2024-01-15T04:02:17;15.77;;;9.00;;
21758;SDS011;11041;50.854;20.580;2024-01-15T04:04:48;16.25;;;9.35;;
21758;SDS011;11041;50.854;20.580;2024-01-15T04:07:18;12.70;;;7.73;;
21758;SDS011;11041;50.854;20.580;2024-01-15T04:09:49;13.90;;;8.53;;
21758;SDS011;11041;50.854;20.580;2024-01-15T04:12:19;18.77;;;9.48;;
21758;SDS011;11041;50.854;20.580;2024-01-15T04:14:49;14.18;;;8.60;;
21758;SDS011;11041;50.854;20.580;2024-01-15T04:17:22;19.00;;;10.20;;
21758;SDS011;11041;50.854;20.580;2024-01-15T04:19:50;13.13;;;7.70;;
21758;SDS011;11041;50.854;20.580;2024-01-15T04:22:19;16.83;;;9.45;;
21758;SDS011;11041;50.854;20.580;2024-01-15T04:24:49;13.10;;;8.10;;
21758;SDS011;11041;50.854;20.580;2024-01-15T04:27:18;14.43;;;8.57;;
21758;SDS011;11041;50.854;20.580;2024-01-15T04:29:47;14.00;;;9.27;;
21758;SDS011;11041;50.854;20.580;2024-01-15T04:32:14;15.75;;;9.15;;
21758;SDS011;11041;50.854;20.580;2024-01-15T04:34:43;9.47;;;4.93;;
21758;SDS011;11041;50.854;20.580;2024-01-15T04:37:15;13.85;;;8.48;;
21758;SDS011;11041;50.854;20.580;2024-01-15T04:39:47;10.43;;;7.60;;
21758;SDS011;11041;50.854;20.580;2024-01-15T04:42:18;16.02;;;7.72;;
21758;SDS011;11041;50.854;20.580;2024-01-15T04:44:53;14.88;;;8.43;;
21758;SDS011;11041;50.854;20.580;2024-01-15T04:47:21;12.80;;;6.75;;
21758;SDS011;11041;50.854;20.580;2024-01-15T04:49:55;11.67;;;7.00;;
21758;SDS011;11041;50.854;20.580;2024-01-15T04:52:22;12.40;;;7.32;;
21758;SDS011;11041;50.854;20.580;2024-01-15T04:54:51;10.10;;;6.27;;
21758;SDS011;11041;50.854;20.580;2024-01-15T04:57:21;9.70;;;6.23;;
21758;SDS011;11041;50.854;20.580;2024-01-15T04:59:48;14.50;;;8.60;;
21758;SDS011;11041;50.854;20.580;2024-01-15T05:02:19;10.20;;;6.43;;
21758;SDS011;11041;50.854;20.580;2024-01-15T05:04:51;11.70;;;5.67;;
21758;SDS011;11041;50.854;20.580;2024-01-15T05:07:22;10.20;;;5.07;;
21758;SDS011;11041;50.854;20.580;2024-01-15T05:09:53;9.10;;;5.03;;
21758;SDS011;11041;50.854;20.580;2024-01-15T05:12:20;10.97;;;5.07;;
21758;SDS011;11041;50.854;20.580;2024-01-15T05:14:49;7.65;;;5.78;;
21758;SDS011;11041;50.854;20.580;2024-01-15T05:17:20;7.65;;;4.47;;
21758;SDS011;11041;50.854;20.580;2024-01-15T05:19:47;9.40;;;5.37;;
21758;SDS011;11041;50.854;20.580;2024-01-15T05:22:15;9.73;;;5.90;;
21758;SDS011;11041;50.854;20.580;2024-01-15T05:24:42;8.27;;;5.32;;
21758;SDS011;11041;50.854;20.580;2024-01-15T05:27:15;8.40;;;4.10;;
21758;SDS011;11041;50.854;20.580;2024-01-15T05:29:46;10.98;;;6.20;;
21758;SDS011;11041;50.854;20.580;2024-01-15T05:32:13;9.82;;;5.18;;
21758;SDS011;11041;50.854;20.580;2024-01-15T05:34:43;7.25;;;5.07;;
21758;SDS011;11041;50.854;20.580;2024-01-15T05:37:14;11.38;;;5.68;;
21758;SDS011;11041;50.854;20.580;2024-01-15T05:39:45;7.85;;;5.25;;
21758;SDS011;11041;50.854;20.580;2024-01-15T05:42:13;7.82;;;4.47;;
21758;SDS011;11041;50.854;20.580;2024-01-15T05:44:48;7.88;;;4.43;;
21758;SDS011;11041;50.854;20.580;2024-01-15T05:47:18;7.40;;;4.60;;
21758;SDS011;11041;50.854;20.580;2024-01-15T05:49:47;9.23;;;4.43;;
21758;SDS011;11041;50.854;20.580;2024-01-15T05:52:15;11.60;;;6.15;;
21758;SDS011;11041;50.854;20.580;2024-01-15T05:54:46;8.60;;;4.83;;
21758;SDS011;11041;50.854;20.580;2024-01-15T05:57:19;8.03;;;4.83;;
21758;SDS011;11041;50.854;20.580;2024-01-15T05:59:51;10.80;;;6.20;;
21758;SDS011;11041;50.854;20.580;2024-01-15T06:02:21;6.50;;;4.60;;
21758;SDS011;11041;50.854;20.580;2024-01-15T06:04:48;12.60;;;6.70;;
21758;SDS011;11041;50.854;20.580;2024-01-15T06:07:20;16.05;;;5.45;;
21758;SDS011;11041;50.854;20.580;2024-01-15T06:09:48;10.15;;;5.63;;
21758;SDS011;11041;50.854;20.580;2024-01-15T06:12:18;11.02;;;6.18;;
21758;SDS011;11041;50.854;20.580;2024-01-15T06:14:47;11.75;;;5.18;;
21758;SDS011;11041;50.854;20.580;2024-01-15T06:17:13;11.25;;;6.35;;
21758;SDS011;11041;50.854;20.580;2024-01-15T06:19:40;9.50;;;5.60;;
21758;SDS011;11041;50.854;20.580;2024-01-15T06:22:07;12.20;;;4.80;;
21758;SDS011;11041;50.854;20.580;2024-01-15T06:24:36;12.47;;;6.63;;
21758;SDS011;11041;50.854;20.580;2024-01-15T06:27:03;11.20;;;7.20;;
21758;SDS011;11041;50.854;20.580;2024-01-15T06:29:33;8.50;;;5.20;;
21758;SDS011;11041;50.854;20.580;2024-01-15T06:32:05;7.68;;;4.13;;
21758;SDS011;11041;50.854;20.580;2024-01-15T06:34:34;14.03;;;7.30;;
21758;SDS011;11041;50.854;20.580;2024-01-15T06:37:03;13.88;;;8.32;;
21758;SDS011;11041;50.854;20.580;2024-01-15T06:39:35;11.57;;;7.05;;
21758;SDS011;11041;50.854;20.580;2024-01-15T06:42:04;12.37;;;7.07;;
21758;SDS011;11041;50.854;20.580;2024-01-15T06:44:35;11.38;;;6.85;;
21758;SDS011;11041;50.854;20.580;2024-01-15T06:47:04;11.88;;;8.15;;
21758;SDS011;11041;50.854;20.580;2024-01-15T06:49:33;10.77;;;7.32;;
21758;SDS011;11041;50.854;20.580;2024-01-15T06:52:03;14.23;;;7.60;;
21758;SDS011;11041;50.854;20.580;2024-01-15T06:54:31;13.82;;;7.82;;
21758;SDS011;11041;50.854;20.580;2024-01-15T06:56:57;9.67;;;5.33;;
21758;SDS011;11041;50.854;20.580;2024-01-15T06:59:27;8.83;;;4.97;;
21758;SDS011;11041;50.854;20.580;2024-01-15T07:01:53;14.07;;;5.73;;
21758;SDS011;11041;50.854;20.580;2024-01-15T07:04:24;13.27;;;6.63;;
21758;SDS011;11041;50.854;20.580;2024-01-15T07:06:53;8.67;;;4.40;;
21758;SDS011;11041;50.854;20.580;2024-01-15T07:09:20;10.43;;;6.05;;
21758;SDS011;11041;50.854;20.580;2024-01-15T07:11:47;16.40;;;8.23;;
21758;SDS011;11041;50.854;20.580;2024-01-15T07:14:15;11.80;;;6.90;;
21758;SDS011;11041;50.854;20.580;2024-01-15T07:16:43;11.87;;;7.27;;
21758;SDS011;11041;50.854;20.580;2024-01-15T07:19:11;16.48;;;7.55;;
21758;SDS011;11041;50.854;20.580;2024-01-15T07:21:37;13.75;;;7.30;;
21758;SDS011;11041;50.854;20.580;2024-01-15T07:24:09;12.93;;;5.63;;
21758;SDS011;11041;50.854;20.580;2024-01-15T07:26:37;12.15;;;7.90;;
21758;SDS011;11041;50.854;20.580;2024-01-15T07:29:05;9.68;;;5.88;;
21758;SDS011;11041;50.854;20.580;2024-01-15T07:31:31;11.95;;;7.43;;
21758;SDS011;11041;50.854;20.580;2024-01-15T07:34:00;13.57;;;7.32;;
21758;SDS011;11041;50.854;20.580;2024-01-15T07:36:27;15.32;;;8.23;;
21758;SDS011;11041;50.854;20.580;2024-01-15T07:38:57;13.95;;;8.23;;
21758;SDS011;11041;50.854;20.580;2024-01-15T07:41:24;18.00;;;8.77;;
21758;SDS011;11041;50.854;20.580;2024-01-15T07:43:52;13.10;;;7.35;;
21758;SDS011;11041;50.854;20.580;2024-01-15T07:46:23;12.90;;;7.97;;
21758;SDS011;11041;50.854;20.580;2024-01-15T07:48:50;15.53;;;8.40;;
21758;SDS011;11041;50.854;20.580;2024-01-15T07:51:23;16.83;;;9.00;;
21758;SDS011;11041;50.854;20.580;2024-01-15T07:53:53;12.70;;;6.95;;
21758;SDS011;11041;50.854;20.580;2024-01-15T07:56:24;8.67;;;5.53;;
21758;SDS011;11041;50.854;20.580;2024-01-15T07:58:55;12.55;;;6.50;;
21758;SDS011;11041;50.854;20.580;2024-01-15T08:01:22;17.05;;;8.75;;
21758;SDS011;11041;50.854;20.580;2024-01-15T08:03:51;18.95;;;8.02;;
21758;SDS011;11041;50.854;20.580;2024-01-15T08:06:21;17.25;;;8.95;;
21758;SDS011;11041;50.854;20.580;2024-01-15T08:08:53;14.05;;;8.40;;
21758;SDS011;11041;50.854;20.580;2024-01-15T08:11:20;15.30;;;7.93;;
21758;SDS011;11041;50.854;20.580;2024-01-15T08:13:52;12.18;;;6.63;;
21758;SDS011;11041;50.854;20.580;2024-01-15T08:16:20;12.40;;;7.43;;
21758;SDS011;11041;50.854;20.580;2024-01-15T08:18:53;11.98;;;6.95;;
21758;SDS011;11041;50.854;20.580;2024-01-15T08:21:20;17.38;;;8.95;;
21758;SDS011;11041;50.854;20.580;2024-01-15T08:23:48;16.17;;;8.73;;
21758;SDS011;11041;50.854;20.580;2024-01-15T08:26:15;9.63;;;6.10;;
21758;SDS011;11041;50.854;20.580;2024-01-15T08:28:42;13.20;;;7.63;;
21758;SDS011;11041;50.854;20.580;2024-01-15T08:31:09;14.48;;;8.60;;
21758;SDS011;11041;50.854;20.580;2024-01-15T08:33:39;12.80;;;8.50;;
21758;SDS011;11041;50.854;20.580;2024-01-15T08:36:05;19.20;;;10.67;;
21758;SDS011;11041;50.854;20.580;2024-01-15T08:38:32;16.23;;;8.85;;
21758;SDS011;11041;50.854;20.580;2024-01-15T08:40:58;20.30;;;10.75;;
21758;SDS011;11041;50.854;20.580;2024-01-15T08:43:28;12.37;;;7.50;;
21758;SDS011;11041;50.854;20.580;2024-01-15T08:45:59;15.02;;;8.68;;
21758;SDS011;11041;50.854;20.580;2024-01-15T08:48:26;14.90;;;8.93;;
21758;SDS011;11041;50.854;20.580;2024-01-15T08:50:57;12.37;;;7.33;;
21758;SDS011;11041;50.854;20.580;2024-01-15T08:53:24;19.25;;;9.80;;
21758;SDS011;11041;50.854;20.580;2024-01-15T08:55:51;15.17;;;8.73;;
21758;SDS011;11041;50.854;20.580;2024-01-15T08:58:17;21.77;;;10.48;;
21758;SDS011;11041;50.854;20.580;2024-01-15T09:00:44;17.05;;;8.07;;
21758;SDS011;11041;50.854;20.580;2024-01-15T09:03:11;18.27;;;10.80;;
21758;SDS011;11041;50.854;20.580;2024-01-15T09:05:38;13.93;;;8.90;;
21758;SDS011;11041;50.854;20.580;2024-01-15T09:08:06;20.05;;;11.55;;
21758;SDS011;11041;50.854;20.580;2024-01-15T09:10:33;14.83;;;8.53;;
21758;SDS011;11041;50.854;20.580;2024-01-15T09:13:00;16.23;;;9.90;;
21758;SDS011;11041;50.854;20.580;2024-01-15T09:15:27;16.33;;;10.02;;
21758;SDS011;11041;50.854;20.580;2024-01-15T09:17:56;18.23;;;8.88;;
21758;SDS011;11041;50.854;20.580;2024-01-15T09:20:24;20.35;;;10.75;;
21758;SDS011;11041;50.854;20.580;2024-01-15T09:22:53;17.70;;;9.93;;
21758;SDS011;11041;50.854;20.580;2024-01-15T09:25:21;16.85;;;9.73;;
21758;SDS011;11041;50.854;20.580;2024-01-15T09:27:52;13.10;;;7.50;;
21758;SDS011;11041;50.854;20.580;2024-01-15T09:30:19;12.13;;;7.07;;
21758;SDS011;11041;50.854;20.580;2024-01-15T09:32:47;14.52;;;8.00;;
21758;SDS011;11041;50.854;20.580;2024-01-15T09:35:15;12.82;;;7.78;;
21758;SDS011;11041;50.854;20.580;2024-01-15T09:37:44;14.93;;;8.60;;
21758;SDS011;11041;50.854;20.580;2024-01-15T09:40:16;14.57;;;8.45;;
21758;SDS011;11041;50.854;20.580;2024-01-15T09:42:46;14.32;;;9.23;;
21758;SDS011;11041;50.854;20.580;2024-01-15T09:45:13;12.15;;;6.53;;
21758;SDS011;11041;50.854;20.580;2024-01-15T09:47:42;11.60;;;6.65;;
21758;SDS011;11041;50.854;20.580;2024-01-15T09:50:09;13.57;;;8.13;;
21758;SDS011;11041;50.854;20.580;2024-01-15T09:52:36;15.25;;;7.70;;
21758;SDS011;11041;50.854;20.580;2024-01-15T09:55:05;14.23;;;7.88;;
21758;SDS011;11041;50.854;20.580;2024-01-15T09:57:34;14.20;;;8.65;;
21758;SDS011;11041;50.854;20.580;2024-01-15T10:00:02;15.98;;;8.60;;
21758;SDS011;11041;50.854;20.580;2024-01-15T10:02:32;13.13;;;8.38;;
21758;SDS011;11041;50.854;20.580;2024-01-15T10:05:01;16.70;;;8.15;;
21758;SDS011;11041;50.854;20.580;2024-01-15T10:07:30;13.50;;;9.05;;
21758;SDS011;11041;50.854;20.580;2024-01-15T10:10:05;14.77;;;8.30;;
21758;SDS011;11041;50.854;20.580;2024-01-15T10:12:33;12.68;;;6.97;;
21758;SDS011;11041;50.854;20.580;2024-01-15T10:15:01;10.25;;;6.68;;
21758;SDS011;11041;50.854;20.580;2024-01-15T10:17:28;15.30;;;9.17;;
21758;SDS011;11041;50.854;20.580;2024-01-15T10:19:56;16.38;;;9.32;;
21758;SDS011;11041;50.854;20.580;2024-01-15T10:22:24;14.35;;;8.82;;
21758;SDS011;11041;50.854;20.580;2024-01-15T10:24:53;15.35;;;8.57;;
21758;SDS011;11041;50.854;20.580;2024-01-15T10:27:20;12.35;;;7.55;;
21758;SDS011;11041;50.854;20.580;2024-01-15T10:29:48;13.93;;;7.57;;
21758;SDS011;11041;50.854;20.580;2024-01-15T10:32:15;9.15;;;6.53;;
21758;SDS011;11041;50.854;20.580;2024-01-15T10:34:42;11.68;;;4.85;;
21758;SDS011;11041;50.854;20.580;2024-01-15T10:37:09;9.77;;;6.55;;
21758;SDS011;11041;50.854;20.580;2024-01-15T10:39:36;11.13;;;6.25;;
21758;SDS011;11041;50.854;20.580;2024-01-15T10:42:04;12.75;;;8.00;;
21758;SDS011;11041;50.854;20.580;2024-01-15T10:44:33;11.43;;;5.00;;
21758;SDS011;11041;50.854;20.580;2024-01-15T10:47:00;16.73;;;8.68;;
21758;SDS011;11041;50.854;20.580;2024-01-15T10:49:29;13.23;;;7.65;;
21758;SDS011;11041;50.854;20.580;2024-01-15T10:51:58;14.63;;;8.63;;
21758;SDS011;11041;50.854;20.580;2024-01-15T10:54:27;12.73;;;8.77;;
21758;SDS011;11041;50.854;20.580;2024-01-15T10:56:59;12.30;;;8.18;;
21758;SDS011;11041;50.854;20.580;2024-01-15T10:59:27;14.85;;;7.45;;
21758;SDS011;11041;50.854;20.580;2024-01-15T11:01:54;13.65;;;7.80;;
21758;SDS011;11041;50.854;20.580;2024-01-15T11:04:26;12.05;;;7.93;;
21758;SDS011;11041;50.854;20.580;2024-01-15T11:06:56;13.32;;;8.77;;
21758;SDS011;11041;50.854;20.580;2024-01-15T11:09:23;10.48;;;6.18;;
21758;SDS011;11041;50.854;20.580;2024-01-15T11:12:08;14.65;;;8.13;;
21758;SDS011;11041;50.854;20.580;2024-01-15T11:14:44;13.18;;;6.60;;
21758;SDS011;11041;50.854;20.580;2024-01-15T11:17:18;13.02;;;7.65;;
21758;SDS011;11041;50.854;20.580;2024-01-15T11:19:49;10.85;;;8.05;;
21758;SDS011;11041;50.854;20.580;2024-01-15T11:24:56;13.05;;;8.63;;
21758;SDS011;11041;50.854;20.580;2024-01-15T11:27:42;16.10;;;9.40;;
21758;SDS011;11041;50.854;20.580;2024-01-15T11:30:14;10.60;;;7.22;;
21758;SDS011;11041;50.854;20.580;2024-01-15T11:32:41;10.18;;;5.50;;
21758;SDS011;11041;50.854;20.580;2024-01-15T11:35:12;14.90;;;9.38;;
21758;SDS011;11041;50.854;20.580;2024-01-15T11:37:56;10.55;;;6.28;;
21758;SDS011;11041;50.854;20.580;2024-01-15T11:43:06;9.88;;;6.80;;
21758;SDS011;11041;50.854;20.580;2024-01-15T11:45:34;14.93;;;7.95;;
21758;SDS011;11041;50.854;20.580;2024-01-15T11:48:12;12.80;;;8.57;;
21758;SDS011;11041;50.854;20.580;2024-01-15T11:50:47;12.48;;;8.63;;
21758;SDS011;11041;50.854;20.580;2024-01-15T11:53:17;13.80;;;8.52;;
21758;SDS011;11041;50.854;20.580;2024-01-15T11:55:59;14.82;;;8.80;;
21758;SDS011;11041;50.854;20.580;2024-01-15T11:58:32;14.57;;;8.23;;
21758;SDS011;11041;50.854;20.580;2024-01-15T12:01:03;10.93;;;6.18;;
21758;SDS011;11041;50.854;20.580;2024-01-15T12:03:31;14.55;;;7.15;;
21758;SDS011;11041;50.854;20.580;2024-01-15T12:06:01;12.32;;;8.20;;
21758;SDS011;11041;50.854;20.580;2024-01-15T12:08:29;15.77;;;8.77;;
21758;SDS011;11041;50.854;20.580;2024-01-15T12:10:58;14.73;;;9.15;;
21758;SDS011;11041;50.854;20.580;2024-01-15T12:13:25;17.80;;;9.52;;
21758;SDS011;11041;50.854;20.580;2024-01-15T12:15:54;13.30;;;7.20;;
21758;SDS011;11041;50.854;20.580;2024-01-15T12:18:21;15.05;;;6.88;;
21758;SDS011;11041;50.854;20.580;2024-01-15T12:20:49;19.67;;;8.90;;
21758;SDS011;11041;50.854;20.580;2024-01-15T12:23:20;15.27;;;7.35;;
21758;SDS011;11041;50.854;20.580;2024-01-15T12:25:49;14.40;;;9.02;;
21758;SDS011;11041;50.854;20.580;2024-01-15T12:28:21;11.90;;;6.65;;
21758;SDS011;11041;50.854;20.580;2024-01-15T12:30:49;17.23;;;9.23;;
21758;SDS011;11041;50.854;20.580;2024-01-15T12:33:17;13.40;;;7.88;;
21758;SDS011;11041;50.854;20.580;2024-01-15T12:35:46;19.75;;;9.77;;
21758;SDS011;11041;50.854;20.580;2024-01-15T12:38:13;15.13;;;9.25;;
21758;SDS011;11041;50.854;20.580;2024-01-15T12:40:39;15.45;;;9.23;;
21758;SDS011;11041;50.854;20.580;2024-01-15T12:43:11;16.50;;;9.52;;
21758;SDS011;11041;50.854;20.580;2024-01-15T12:45:42;15.85;;;8.25;;
21758;SDS011;11041;50.854;20.580;2024-01-15T12:48:14;12.63;;;6.43;;
21758;SDS011;11041;50.854;20.580;2024-01-15T12:50:43;15.98;;;9.00;;
21758;SDS011;11041;50.854;20.580;2024-01-15T12:53:11;17.63;;;8.68;;
21758;SDS011;11041;50.854;20.580;2024-01-15T12:55:37;18.63;;;9.85;;
21758;SDS011;11041;50.854;20.580;2024-01-15T12:58:05;16.98;;;9.32;;
21758;SDS011;11041;50.854;20.580;2024-01-15T13:00:31;17.23;;;10.07;;
21758;SDS011;11041;50.854;20.580;2024-01-15T13:02:58;15.35;;;9.48;;
21758;SDS011;11041;50.854;20.580;2024-01-15T13:05:26;13.82;;;7.53;;
21758;SDS011;11041;50.854;20.580;2024-01-15T13:07:57;15.63;;;8.32;;
21758;SDS011;11041;50.854;20.580;2024-01-15T13:10:26;17.30;;;9.82;;
21758;SDS011;11041;50.854;20.580;2024-01-15T13:12:58;14.13;;;7.68;;
21758;SDS011;11041;50.854;20.580;2024-01-15T13:15:27;14.18;;;7.78;;
21758;SDS011;11041;50.854;20.580;2024-01-15T13:17:57;18.05;;;9.85;;
21758;SDS011;11041;50.854;20.580;2024-01-15T13:20:26;15.70;;;8.82;;
21758;SDS011;11041;50.854;20.580;2024-01-15T13:22:56;18.45;;;9.50;;
21758;SDS011;11041;50.854;20.580;2024-01-15T13:25:26;19.50;;;9.90;;
21758;SDS011;11041;50.854;20.580;2024-01-15T13:27:57;20.17;;;9.90;;
21758;SDS011;11041;50.854;20.580;2024-01-15T13:30:26;16.45;;;9.75;;
21758;SDS011;11041;50.854;20.580;2024-01-15T13:32:55;19.58;;;11.10;;
21758;SDS011;11041;50.854;20.580;2024-01-15T13:35:31;21.65;;;11.07;;
21758;SDS011;11041;50.854;20.580;2024-01-15T13:37:59;19.83;;;10.98;;
21758;SDS011;11041;50.854;20.580;2024-01-15T13:40:26;13.77;;;7.60;;
21758;SDS011;11041;50.854;20.580;2024-01-15T13:42:55;18.73;;;10.35;;
21758;SDS011;11041;50.854;20.580;2024-01-15T13:45:23;20.02;;;9.45;;
21758;SDS011;11041;50.854;20.580;2024-01-15T13:47:50;14.88;;;9.60;;
21758;SDS011;11041;50.854;20.580;2024-01-15T13:50:17;14.30;;;8.98;;
21758;SDS011;11041;50.854;20.580;2024-01-15T13:52:44;21.02;;;10.10;;
21758;SDS011;11041;50.854;20.580;2024-01-15T13:55:12;19.35;;;9.60;;
21758;SDS011;11041;50.854;20.580;2024-01-15T13:57:40;17.73;;;8.75;;
21758;SDS011;11041;50.854;20.580;2024-01-15T14:00:07;16.40;;;8.25;;
21758;SDS011;11041;50.854;20.580;2024-01-15T14:02:39;19.23;;;10.45;;
21758;SDS011;11041;50.854;20.580;2024-01-15T14:05:08;14.85;;;7.60;;
21758;SDS011;11041;50.854;20.580;2024-01-15T14:07:38;17.90;;;9.70;;
21758;SDS011;11041;50.854;20.580;2024-01-15T14:10:05;19.45;;;10.23;;
21758;SDS011;11041;50.854;20.580;2024-01-15T14:12:34;21.65;;;10.77;;
21758;SDS011;11041;50.854;20.580;2024-01-15T14:15:04;14.88;;;7.82;;
21758;SDS011;11041;50.854;20.580;2024-01-15T14:17:34;20.13;;;10.77;;
21758;SDS011;11041;50.854;20.580;2024-01-15T14:20:01;19.73;;;10.75;;
21758;SDS011;11041;50.854;20.580;2024-01-15T14:22:31;14.88;;;7.95;;
21758;SDS011;11041;50.854;20.580;2024-01-15T14:24:59;18.98;;;8.10;;
21758;SDS011;11041;50.854;20.580;2024-01-15T14:27:27;19.48;;;11.23;;
21758;SDS011;11041;50.854;20.580;2024-01-15T14:29:55;17.67;;;9.13;;
21758;SDS011;11041;50.854;20.580;2024-01-15T14:32:24;18.63;;;10.73;;
21758;SDS011;11041;50.854;20.580;2024-01-15T14:34:53;16.70;;;8.53;;